Germantown, Ohio
Current Conditions -  °F | °C
As of 1:55 PM on Monday 20 Oct 2014 (Local Time) from KMWO Reporting Station
Broken Clouds Broken Clouds  
Wind Chill: 63°   Ceiling: 7000
Heat Index: 63°   Visibility: 10mi
Dew Point: 46°   Wind: 16mph
Humidity: 53%   Direction: 220°SW
Pressure: 29.89"   Gusts: 20mph
Location:  39.63°N, 84.37°W
Report Text: KMWO 201755Z AUTO 22014G17KT 10SM BKN070 BKN080 BKN110 17/08 A2989 RMK AO2 T01740077 10180 20096
Loading
Personal Weather Stations






























Interactive Weather Map
Tropical Storm Tracking
New forecast layout! Learn more

10-Day Weather Forecast

Advertisements
Track Severe Weather on mobile